Weather at Carson Airport

Public forecast

Using degrees Fahrenheit for public forecast. Weather courtesy of forecast.io.

Current aviation weather report (METAR) for Carson Airport

Retrieved 2021/01/20 09:35 UTC (0 seconds ago):

KCXP 200935Z AUTO 00000KT 10SM CLR M05/M11 A3028 RMK AO2

Aviation forecast (TAF) for Carson Airport

Retrieved 2021/01/20 06:36 UTC (3 hours ago):

TAF KCXP 200535Z 2006/2106 00000KT P6SM SKC FM202100 08007KT P6SM SKC FM210300 VRB04KT P6SM FEW250